Time;durP1;ratioP1;P1;durP2;ratioP2;P2;SDS_P1;SDS_P2;PMS_P1;PMS_P2;Temp;Humidity;BMP_temperature;BMP_pressure;BME280_temperature;BME280_humidity;BME280_pressure;Samples;Min_cycle;Max_cycle;Signal;HPM_P1;HPM_P2
2024/01/20 00:06:48;;;;;;;54.80;20.20;;;;;;;0.78;94.67;100292.83;681543;1273;140337;-78
2024/01/20 00:21:52;;;;;;;29.60;15.30;;;;;;;0.97;95.84;100289.38;681395;1266;141414;-79
2024/01/20 00:36:56;;;;;;;37.60;17.60;;;;;;;1.16;95.34;100289.15;681528;1263;140792;-79
2024/01/20 00:51:59;;;;;;;41.30;18.10;;;;;;;1.26;97.44;100277.44;681381;1264;140291;-79
2024/01/20 01:07:03;;;;;;;41.40;17.00;;;;;;;1.55;97.28;100277.56;681284;1262;139648;-79
2024/01/20 01:22:07;;;;;;;25.50;13.00;;;;;;;1.81;96.92;100277.98;681436;1266;140486;-79
2024/01/20 01:37:11;;;;;;;27.50;12.30;;;;;;;1.95;96.63;100279.83;681457;1265;141032;-78
2024/01/20 01:52:17;;;;;;;32.10;12.90;;;;;;;2.02;95.66;100280.65;681597;1266;140394;-79
2024/01/20 02:07:21;;;;;;;30.80;11.60;;;;;;;2.09;95.29;100287.37;681803;1263;141639;-79
2024/01/20 02:22:27;;;;;;;35.10;13.00;;;;;;;2.09;94.90;100279.79;681435;1261;140868;-78
2024/01/20 02:37:31;;;;;;;28.10;12.10;;;;;;;2.21;93.95;100268.31;681707;1264;140415;-80
2024/01/20 02:52:36;;;;;;;33.90;12.50;;;;;;;2.30;92.97;100270.24;681650;1266;140409;-78
2024/01/20 03:07:39;;;;;;;33.50;13.60;;;;;;;2.19;93.55;100268.41;681797;1267;141202;-78
2024/01/20 03:22:43;;;;;;;41.80;15.00;;;;;;;2.10;94.76;100250.59;681819;1261;140809;-77
2024/01/20 03:37:47;;;;;;;31.80;14.30;;;;;;;1.95;95.94;100240.34;681898;1267;141659;-77
2024/01/20 03:52:50;;;;;;;42.60;16.30;;;;;;;1.98;95.89;100227.08;681726;1266;140008;-78
2024/01/20 04:07:53;;;;;;;30.80;14.10;;;;;;;1.72;99.41;100220.83;681887;1266;139673;-79
2024/01/20 04:22:57;;;;;;;28.40;14.00;;;;;;;1.65;99.68;100226.03;681712;1264;140453;-77
2024/01/20 04:38:01;;;;;;;37.30;14.90;;;;;;;1.78;99.97;100224.82;681897;1264;139578;-78
2024/01/20 04:53:04;;;;;;;38.50;14.20;;;;;;;2.01;99.32;100230.02;681316;1262;139851;-78
2024/01/20 05:08:07;;;;;;;31.10;13.40;;;;;;;2.17;98.59;100226.21;681933;1264;139757;-77
2024/01/20 05:23:12;;;;;;;41.50;16.10;;;;;;;2.24;97.50;100236.73;681630;1264;141152;-78
2024/01/20 05:38:15;;;;;;;52.40;20.30;;;;;;;2.47;96.76;100241.35;681915;1266;140106;-79
2024/01/20 05:53:20;;;;;;;44.20;15.10;;;;;;;2.57;96.22;100235.77;681689;1261;141198;-78
2024/01/20 06:08:24;;;;;;;30.10;14.60;;;;;;;2.66;95.41;100224.27;681555;1265;141143;-79
2024/01/20 06:23:29;;;;;;;50.00;18.30;;;;;;;2.77;94.97;100230.71;681811;1261;141612;-78
2024/01/20 06:38:32;;;;;;;70.60;27.00;;;;;;;3.04;93.73;100253.92;681646;1264;140865;-78
2024/01/20 06:53:36;;;;;;;35.20;16.00;;;;;;;3.05;93.32;100257.98;681842;1262;141388;-78
2024/01/20 07:08:40;;;;;;;40.20;14.10;;;;;;;3.11;93.57;100277.17;681586;1264;141575;-79
2024/01/20 07:23:45;;;;;;;62.20;23.60;;;;;;;3.28;92.45;100298.33;681695;1262;181015;-78
2024/01/20 07:38:49;;;;;;;36.70;18.30;;;;;;;3.21;91.81;100300.45;681359;1261;141244;-78
2024/01/20 07:53:52;;;;;;;69.00;28.10;;;;;;;3.33;91.09;100301.17;681840;1262;140042;-78
2024/01/20 08:08:55;;;;;;;39.70;17.70;;;;;;;3.37;90.91;100305.61;681474;1264;142095;-77
2024/01/20 08:24:00;;;;;;;51.20;21.60;;;;;;;3.23;91.04;100309.15;681858;1262;139465;-78
2024/01/20 08:39:04;;;;;;;26.70;13.90;;;;;;;3.33;90.55;100320.17;681797;1261;140676;-78
2024/01/20 08:54:08;;;;;;;45.00;16.00;;;;;;;3.52;89.42;100321.85;681856;1262;140567;-79
2024/01/20 09:09:12;;;;;;;27.50;14.20;;;;;;;3.85;87.95;100322.02;681567;1265;140565;-80
2024/01/20 09:24:16;;;;;;;34.30;16.50;;;;;;;3.71;87.16;100326.28;681609;1261;140380;-79
2024/01/20 09:39:20;;;;;;;41.40;17.50;;;;;;;3.85;86.54;100335.02;681700;1262;140235;-80
2024/01/20 09:54:25;;;;;;;60.80;26.70;;;;;;;4.02;85.20;100330.35;681789;1262;139585;-81
2024/01/20 10:09:30;;;;;;;32.80;16.40;;;;;;;4.17;84.65;100330.64;681649;1261;140206;-81
2024/01/20 10:24:34;;;;;;;38.90;16.60;;;;;;;4.06;84.24;100328.06;681672;1264;140176;-81
2024/01/20 10:39:43;;;;;;;29.60;15.20;;;;;;;4.20;84.35;100330.48;681777;1262;140730;-82
2024/01/20 10:54:50;;;;;;;32.50;14.30;;;;;;;4.04;84.58;100314.84;681765;1262;139604;-80
2024/01/20 11:09:59;;;;;;;47.30;17.80;;;;;;;4.08;84.61;100289.67;681682;1261;143547;-82
2024/01/20 11:25:05;;;;;;;50.90;22.10;;;;;;;4.00;86.20;100291.57;681820;1264;139493;-80
2024/01/20 11:40:10;;;;;;;109.70;33.10;;;;;;;3.82;89.21;100272.39;681585;1261;139571;-80
2024/01/20 11:55:13;;;;;;;128.20;47.70;;;;;;;3.67;91.83;100273.23;681770;1262;140038;-80
2024/01/20 12:10:18;;;;;;;54.10;24.70;;;;;;;3.69;94.42;100274.03;681459;1263;141224;-80
2024/01/20 12:25:23;;;;;;;40.70;20.30;;;;;;;3.87;93.30;100269.65;681803;1266;139814;-79
2024/01/20 12:40:29;;;;;;;86.60;31.30;;;;;;;3.91;93.11;100290.71;681534;1261;141358;-80
2024/01/20 12:55:33;;;;;;;61.30;23.60;;;;;;;3.91;92.64;100304.02;681594;1265;140040;-83
2024/01/20 13:10:38;;;;;;;82.30;32.20;;;;;;;3.87;93.89;100326.40;681611;1262;140380;-83
2024/01/20 13:25:42;;;;;;;52.40;24.40;;;;;;;4.10;93.11;100352.72;681765;1265;139743;-84
2024/01/20 13:40:47;;;;;;;62.40;27.00;;;;;;;3.94;93.54;100361.30;681581;1263;139810;-84
2024/01/20 13:55:51;;;;;;;47.30;20.70;;;;;;;4.06;93.23;100374.26;681654;1262;139766;-87
2024/01/20 14:10:55;;;;;;;56.60;22.40;;;;;;;4.14;93.11;100396.62;681624;1266;139671;-86
2024/01/20 14:26:00;;;;;;;56.90;26.50;;;;;;;4.23;93.14;100426.23;681795;1264;141030;-87
2024/01/20 14:41:07;;;;;;;33.10;13.80;;;;;;;4.32;93.08;100467.63;681682;1265;139288;-87
2024/01/20 14:56:15;;;;;;;64.30;31.20;;;;;;;4.37;93.07;100511.61;681851;1265;139488;-86
2024/01/20 15:11:22;;;;;;;65.10;25.10;;;;;;;4.23;93.33;100551.25;681668;1265;139720;-88
2024/01/20 15:26:27;;;;;;;66.40;27.70;;;;;;;4.22;93.19;100586.43;681572;1262;140183;-83
2024/01/20 15:41:31;;;;;;;39.60;16.20;;;;;;;4.23;93.69;100626.22;681769;1264;139296;-83
2024/01/20 15:56:41;;;;;;;47.80;19.20;;;;;;;4.23;94.04;100664.66;681649;1265;139883;-82
2024/01/20 16:11:54;;;;;;;54.60;25.50;;;;;;;4.28;94.16;100709.41;681727;1262;140345;-81
2024/01/20 16:26:57;;;;;;;25.20;12.70;;;;;;;4.34;94.47;100757.90;681753;1261;41031;-81
2024/01/20 16:42:03;;;;;;;71.20;25.00;;;;;;;4.24;94.36;100779.95;681930;1265;22269;-81
2024/01/20 16:57:09;;;;;;;30.20;12.60;;;;;;;4.13;94.86;100810.96;681643;1265;22180;-81
2024/01/20 17:12:15;;;;;;;38.00;17.30;;;;;;;4.14;94.61;100855.06;681872;1265;23112;-82
2024/01/20 17:27:20;;;;;;;20.50;8.40;;;;;;;4.17;94.95;100890.21;681683;1265;23119;-81
2024/01/20 17:42:27;;;;;;;24.70;10.60;;;;;;;4.16;94.83;100915.56;681975;1266;22390;-82
2024/01/20 17:57:31;;;;;;;26.30;11.30;;;;;;;4.04;94.48;100934.52;681874;1265;22325;-82
2024/01/20 18:12:35;;;;;;;49.30;18.20;;;;;;;3.96;94.46;100972.13;681916;1268;22183;-81
2024/01/20 18:27:39;;;;;;;31.30;10.60;;;;;;;3.98;94.72;101010.61;681939;1266;22239;-82
2024/01/20 18:42:46;;;;;;;109.30;33.80;;;;;;;4.01;94.53;101058.42;681974;1267;23374;-82
2024/01/20 18:57:51;;;;;;;97.60;31.50;;;;;;;3.96;93.44;101089.95;681789;1266;22338;-83
2024/01/20 19:12:54;;;;;;;64.90;18.40;;;;;;;3.83;92.63;101132.29;681834;1267;22308;-83
2024/01/20 19:27:58;;;;;;;187.60;95.10;;;;;;;3.71;91.20;101155.52;681791;1264;199584;-82
2024/01/20 19:43:02;;;;;;;143.50;58.40;;;;;;;3.67;90.42;101189.78;681866;1274;22338;-82
2024/01/20 19:58:06;;;;;;;118.50;39.40;;;;;;;3.70;89.58;101216.79;681734;1276;22432;-83
2024/01/20 20:13:10;;;;;;;54.90;16.90;;;;;;;3.67;88.96;101244.61;681672;1264;22164;-82
2024/01/20 20:28:14;;;;;;;44.90;17.20;;;;;;;3.57;87.85;101265.79;681786;1266;22320;-81
2024/01/20 20:43:22;;;;;;;36.20;15.90;;;;;;;3.53;86.70;101287.08;681707;1265;22373;-81
2024/01/20 20:58:41;;;;;;;60.90;20.20;;;;;;;3.41;85.64;101312.16;681757;1264;22354;-81
2024/01/20 21:13:49;;;;;;;38.50;12.90;;;;;;;3.28;84.96;101331.00;681820;1266;22156;-81
2024/01/20 21:28:53;;;;;;;78.40;26.70;;;;;;;3.02;84.42;101356.74;681873;1264;22986;-81
2024/01/20 21:43:57;;;;;;;47.40;16.10;;;;;;;2.64;84.06;101371.52;681925;1260;22151;-81
2024/01/20 21:59:03;;;;;;;54.80;24.50;;;;;;;2.41;84.07;101395.14;681893;1262;22139;-81
2024/01/20 22:14:07;;;;;;;34.80;16.00;;;;;;;2.19;83.61;101410.77;681984;1265;23259;-80
2024/01/20 22:29:11;;;;;;;121.30;38.30;;;;;;;1.91;83.50;101435.89;682048;1263;22308;-79
2024/01/20 22:44:30;;;;;;;141.20;41.80;;;;;;;1.39;84.00;101468.05;682032;1261;22174;-79
2024/01/20 22:59:34;;;;;;;183.40;54.80;;;;;;;1.04;84.54;101496.15;682047;1262;23114;-78
2024/01/20 23:14:38;;;;;;;207.40;56.70;;;;;;;0.66;84.21;101511.85;681824;1260;22362;-78
2024/01/20 23:29:42;;;;;;;86.40;31.30;;;;;;;0.35;84.27;101531.07;682000;1261;23213;-79
2024/01/20 23:44:46;;;;;;;64.90;25.20;;;;;;;-0.03;84.32;101547.48;682017;1261;22307;-78
2024/01/20 23:59:49;;;;;;;122.10;32.60;;;;;;;-0.20;85.11;101559.39;681827;1267;22169;-78
